sensor_id;sensor_type;location;lat;lon;timestamp;P1;durP1;ratioP1;P2;durP2;ratioP2
6598;SDS011;3335;43.198;27.918;2023-02-28T00:01:32;5.50;;;4.83;;
6598;SDS011;3335;43.198;27.918;2023-02-28T00:03:59;4.90;;;3.97;;
6598;SDS011;3335;43.198;27.918;2023-02-28T00:06:26;5.87;;;4.40;;
6598;SDS011;3335;43.198;27.918;2023-02-28T00:08:54;4.73;;;4.00;;
6598;SDS011;3335;43.198;27.918;2023-02-28T00:11:21;6.77;;;4.83;;
6598;SDS011;3335;43.198;27.918;2023-02-28T00:13:48;4.67;;;4.27;;
6598;SDS011;3335;43.198;27.918;2023-02-28T00:16:17;4.93;;;4.43;;
6598;SDS011;3335;43.198;27.918;2023-02-28T00:18:46;5.27;;;4.20;;
6598;SDS011;3335;43.198;27.918;2023-02-28T00:21:13;6.67;;;4.67;;
6598;SDS011;3335;43.198;27.918;2023-02-28T00:23:41;8.90;;;4.67;;
6598;SDS011;3335;43.198;27.918;2023-02-28T00:26:09;5.70;;;4.87;;
6598;SDS011;3335;43.198;27.918;2023-02-28T00:28:36;6.13;;;4.30;;
6598;SDS011;3335;43.198;27.918;2023-02-28T00:31:03;5.90;;;4.37;;
6598;SDS011;3335;43.198;27.918;2023-02-28T00:33:32;6.60;;;4.30;;
6598;SDS011;3335;43.198;27.918;2023-02-28T00:36:02;6.50;;;4.73;;
6598;SDS011;3335;43.198;27.918;2023-02-28T00:38:31;6.07;;;4.90;;
6598;SDS011;3335;43.198;27.918;2023-02-28T00:40:58;5.13;;;4.50;;
6598;SDS011;3335;43.198;27.918;2023-02-28T00:43:29;5.17;;;4.67;;
6598;SDS011;3335;43.198;27.918;2023-02-28T00:45:57;4.87;;;4.40;;
6598;SDS011;3335;43.198;27.918;2023-02-28T00:48:24;6.90;;;5.07;;
6598;SDS011;3335;43.198;27.918;2023-02-28T00:50:52;5.23;;;4.73;;
6598;SDS011;3335;43.198;27.918;2023-02-28T00:53:19;4.53;;;4.13;;
6598;SDS011;3335;43.198;27.918;2023-02-28T00:55:47;5.07;;;4.40;;
6598;SDS011;3335;43.198;27.918;2023-02-28T00:58:14;5.83;;;4.83;;
6598;SDS011;3335;43.198;27.918;2023-02-28T01:00:41;6.70;;;4.90;;
6598;SDS011;3335;43.198;27.918;2023-02-28T01:03:08;5.97;;;4.23;;
6598;SDS011;3335;43.198;27.918;2023-02-28T01:05:35;4.60;;;4.20;;
6598;SDS011;3335;43.198;27.918;2023-02-28T01:08:03;5.33;;;4.50;;
6598;SDS011;3335;43.198;27.918;2023-02-28T01:10:31;5.87;;;4.70;;
6598;SDS011;3335;43.198;27.918;2023-02-28T01:12:58;5.40;;;4.77;;
6598;SDS011;3335;43.198;27.918;2023-02-28T01:15:25;6.00;;;4.50;;
6598;SDS011;3335;43.198;27.918;2023-02-28T01:17:52;5.27;;;4.77;;
6598;SDS011;3335;43.198;27.918;2023-02-28T01:20:19;5.87;;;5.00;;
6598;SDS011;3335;43.198;27.918;2023-02-28T01:22:46;5.67;;;5.07;;
6598;SDS011;3335;43.198;27.918;2023-02-28T01:25:15;5.60;;;5.07;;
6598;SDS011;3335;43.198;27.918;2023-02-28T01:27:42;5.47;;;4.90;;
6598;SDS011;3335;43.198;27.918;2023-02-28T01:30:10;6.03;;;4.90;;
6598;SDS011;3335;43.198;27.918;2023-02-28T01:32:38;6.00;;;5.27;;
6598;SDS011;3335;43.198;27.918;2023-02-28T01:35:05;5.73;;;5.17;;
6598;SDS011;3335;43.198;27.918;2023-02-28T01:37:32;7.57;;;5.07;;
6598;SDS011;3335;43.198;27.918;2023-02-28T01:39:59;6.60;;;5.37;;
6598;SDS011;3335;43.198;27.918;2023-02-28T01:42:27;6.50;;;5.00;;
6598;SDS011;3335;43.198;27.918;2023-02-28T01:44:59;7.17;;;5.30;;
6598;SDS011;3335;43.198;27.918;2023-02-28T01:47:29;7.23;;;5.47;;
6598;SDS011;3335;43.198;27.918;2023-02-28T01:50:01;6.57;;;5.27;;
6598;SDS011;3335;43.198;27.918;2023-02-28T01:52:30;6.67;;;5.97;;
6598;SDS011;3335;43.198;27.918;2023-02-28T01:54:59;8.23;;;6.20;;
6598;SDS011;3335;43.198;27.918;2023-02-28T01:57:30;8.27;;;6.37;;
6598;SDS011;3335;43.198;27.918;2023-02-28T02:00:04;7.43;;;6.33;;
6598;SDS011;3335;43.198;27.918;2023-02-28T02:02:34;7.30;;;6.07;;
6598;SDS011;3335;43.198;27.918;2023-02-28T02:05:03;7.93;;;6.30;;
6598;SDS011;3335;43.198;27.918;2023-02-28T02:07:33;7.60;;;5.70;;
6598;SDS011;3335;43.198;27.918;2023-02-28T02:10:04;7.67;;;6.03;;
6598;SDS011;3335;43.198;27.918;2023-02-28T02:12:39;8.23;;;5.73;;
6598;SDS011;3335;43.198;27.918;2023-02-28T02:15:24;9.03;;;6.43;;
6598;SDS011;3335;43.198;27.918;2023-02-28T02:17:56;8.27;;;6.27;;
6598;SDS011;3335;43.198;27.918;2023-02-28T02:20:32;7.10;;;5.87;;
6598;SDS011;3335;43.198;27.918;2023-02-28T02:23:20;7.20;;;5.87;;
6598;SDS011;3335;43.198;27.918;2023-02-28T02:26:02;6.37;;;5.43;;
6598;SDS011;3335;43.198;27.918;2023-02-28T02:32:20;6.97;;;5.70;;
6598;SDS011;3335;43.198;27.918;2023-02-28T02:35:12;5.47;;;4.80;;
6598;SDS011;3335;43.198;27.918;2023-02-28T02:37:43;5.80;;;5.17;;
6598;SDS011;3335;43.198;27.918;2023-02-28T02:40:18;5.20;;;4.70;;
6598;SDS011;3335;43.198;27.918;2023-02-28T02:42:49;5.67;;;5.07;;
6598;SDS011;3335;43.198;27.918;2023-02-28T02:45:23;6.07;;;5.03;;
6598;SDS011;3335;43.198;27.918;2023-02-28T02:47:52;5.57;;;5.00;;
6598;SDS011;3335;43.198;27.918;2023-02-28T02:50:22;7.57;;;4.43;;
6598;SDS011;3335;43.198;27.918;2023-02-28T02:52:54;5.30;;;4.70;;
6598;SDS011;3335;43.198;27.918;2023-02-28T02:55:24;6.50;;;4.53;;
6598;SDS011;3335;43.198;27.918;2023-02-28T02:57:52;5.60;;;4.40;;
6598;SDS011;3335;43.198;27.918;2023-02-28T03:00:25;4.87;;;4.20;;
6598;SDS011;3335;43.198;27.918;2023-02-28T03:02:54;6.60;;;4.20;;
6598;SDS011;3335;43.198;27.918;2023-02-28T03:05:25;5.27;;;4.00;;
6598;SDS011;3335;43.198;27.918;2023-02-28T03:07:54;4.80;;;3.87;;
6598;SDS011;3335;43.198;27.918;2023-02-28T03:16:25;3.87;;;3.37;;
6598;SDS011;3335;43.198;27.918;2023-02-28T03:19:01;5.53;;;3.70;;
6598;SDS011;3335;43.198;27.918;2023-02-28T03:21:40;4.63;;;4.23;;
6598;SDS011;3335;43.198;27.918;2023-02-28T03:24:14;4.40;;;4.00;;
6598;SDS011;3335;43.198;27.918;2023-02-28T03:26:45;4.40;;;4.00;;
6598;SDS011;3335;43.198;27.918;2023-02-28T03:29:22;4.03;;;3.63;;
6598;SDS011;3335;43.198;27.918;2023-02-28T03:31:55;4.70;;;3.93;;
6598;SDS011;3335;43.198;27.918;2023-02-28T03:34:29;5.13;;;4.00;;
6598;SDS011;3335;43.198;27.918;2023-02-28T03:37:03;4.37;;;3.97;;
6598;SDS011;3335;43.198;27.918;2023-02-28T03:39:34;5.57;;;4.50;;
6598;SDS011;3335;43.198;27.918;2023-02-28T03:42:05;5.77;;;4.47;;
6598;SDS011;3335;43.198;27.918;2023-02-28T03:44:37;4.40;;;4.00;;
6598;SDS011;3335;43.198;27.918;2023-02-28T03:47:08;7.37;;;4.67;;
6598;SDS011;3335;43.198;27.918;2023-02-28T03:49:38;5.03;;;4.53;;
6598;SDS011;3335;43.198;27.918;2023-02-28T03:52:11;6.77;;;5.00;;
6598;SDS011;3335;43.198;27.918;2023-02-28T03:54:39;7.83;;;5.70;;
6598;SDS011;3335;43.198;27.918;2023-02-28T03:57:10;5.47;;;4.97;;
6598;SDS011;3335;43.198;27.918;2023-02-28T03:59:42;6.40;;;5.23;;
6598;SDS011;3335;43.198;27.918;2023-02-28T04:02:11;6.30;;;5.50;;
6598;SDS011;3335;43.198;27.918;2023-02-28T04:04:38;7.73;;;6.43;;
6598;SDS011;3335;43.198;27.918;2023-02-28T04:07:15;6.77;;;5.27;;
6598;SDS011;3335;43.198;27.918;2023-02-28T04:09:42;10.17;;;5.83;;
6598;SDS011;3335;43.198;27.918;2023-02-28T04:12:09;8.43;;;5.50;;
6598;SDS011;3335;43.198;27.918;2023-02-28T04:14:37;8.60;;;5.73;;
6598;SDS011;3335;43.198;27.918;2023-02-28T04:17:03;7.10;;;5.87;;
6598;SDS011;3335;43.198;27.918;2023-02-28T04:19:30;7.83;;;6.07;;
6598;SDS011;3335;43.198;27.918;2023-02-28T04:21:57;9.23;;;6.20;;
6598;SDS011;3335;43.198;27.918;2023-02-28T04:24:26;9.37;;;6.10;;
6598;SDS011;3335;43.198;27.918;2023-02-28T04:26:54;8.10;;;5.93;;
6598;SDS011;3335;43.198;27.918;2023-02-28T04:29:23;12.73;;;6.40;;
6598;SDS011;3335;43.198;27.918;2023-02-28T04:31:51;6.77;;;5.60;;
6598;SDS011;3335;43.198;27.918;2023-02-28T04:34:19;7.80;;;6.17;;
6598;SDS011;3335;43.198;27.918;2023-02-28T04:36:46;8.10;;;6.33;;
6598;SDS011;3335;43.198;27.918;2023-02-28T04:39:14;10.00;;;6.70;;
6598;SDS011;3335;43.198;27.918;2023-02-28T04:41:44;9.23;;;5.70;;
6598;SDS011;3335;43.198;27.918;2023-02-28T04:44:12;7.57;;;6.00;;
6598;SDS011;3335;43.198;27.918;2023-02-28T04:46:39;12.43;;;6.70;;
6598;SDS011;3335;43.198;27.918;2023-02-28T04:49:06;7.87;;;6.00;;
6598;SDS011;3335;43.198;27.918;2023-02-28T04:51:33;10.00;;;6.30;;
6598;SDS011;3335;43.198;27.918;2023-02-28T04:53:59;9.67;;;7.30;;
6598;SDS011;3335;43.198;27.918;2023-02-28T04:56:26;9.27;;;6.60;;
6598;SDS011;3335;43.198;27.918;2023-02-28T04:58:55;9.93;;;6.77;;
6598;SDS011;3335;43.198;27.918;2023-02-28T05:01:22;11.20;;;8.00;;
6598;SDS011;3335;43.198;27.918;2023-02-28T05:03:51;10.77;;;7.70;;
6598;SDS011;3335;43.198;27.918;2023-02-28T05:06:19;14.53;;;7.90;;
6598;SDS011;3335;43.198;27.918;2023-02-28T05:08:48;11.97;;;8.10;;
6598;SDS011;3335;43.198;27.918;2023-02-28T05:11:17;13.03;;;8.37;;
6598;SDS011;3335;43.198;27.918;2023-02-28T05:13:45;13.30;;;8.33;;
6598;SDS011;3335;43.198;27.918;2023-02-28T05:16:14;14.33;;;8.53;;
6598;SDS011;3335;43.198;27.918;2023-02-28T05:18:41;13.17;;;8.73;;
6598;SDS011;3335;43.198;27.918;2023-02-28T05:21:17;18.00;;;9.13;;
6598;SDS011;3335;43.198;27.918;2023-02-28T05:23:50;15.90;;;9.23;;
6598;SDS011;3335;43.198;27.918;2023-02-28T05:26:18;16.70;;;10.50;;
6598;SDS011;3335;43.198;27.918;2023-02-28T05:28:45;15.47;;;9.57;;
6598;SDS011;3335;43.198;27.918;2023-02-28T05:31:12;16.77;;;10.43;;
6598;SDS011;3335;43.198;27.918;2023-02-28T05:33:41;15.30;;;10.10;;
6598;SDS011;3335;43.198;27.918;2023-02-28T05:36:08;16.70;;;9.77;;
6598;SDS011;3335;43.198;27.918;2023-02-28T05:38:35;19.57;;;10.50;;
6598;SDS011;3335;43.198;27.918;2023-02-28T05:41:04;21.60;;;11.13;;
6598;SDS011;3335;43.198;27.918;2023-02-28T05:43:32;18.67;;;10.63;;
6598;SDS011;3335;43.198;27.918;2023-02-28T05:46:01;17.60;;;10.37;;
6598;SDS011;3335;43.198;27.918;2023-02-28T05:48:29;18.13;;;11.00;;
6598;SDS011;3335;43.198;27.918;2023-02-28T05:50:58;17.20;;;10.17;;
6598;SDS011;3335;43.198;27.918;2023-02-28T05:53:25;19.47;;;10.83;;
6598;SDS011;3335;43.198;27.918;2023-02-28T05:55:52;19.20;;;10.93;;
6598;SDS011;3335;43.198;27.918;2023-02-28T05:58:19;22.17;;;10.60;;
6598;SDS011;3335;43.198;27.918;2023-02-28T06:00:46;22.57;;;12.00;;
6598;SDS011;3335;43.198;27.918;2023-02-28T06:03:13;22.07;;;12.90;;
6598;SDS011;3335;43.198;27.918;2023-02-28T06:05:40;25.60;;;13.43;;
6598;SDS011;3335;43.198;27.918;2023-02-28T06:08:08;20.03;;;11.40;;
6598;SDS011;3335;43.198;27.918;2023-02-28T06:10:35;19.83;;;11.00;;
6598;SDS011;3335;43.198;27.918;2023-02-28T06:13:02;24.13;;;12.97;;
6598;SDS011;3335;43.198;27.918;2023-02-28T06:15:30;22.60;;;12.07;;
6598;SDS011;3335;43.198;27.918;2023-02-28T06:17:58;22.93;;;11.83;;
6598;SDS011;3335;43.198;27.918;2023-02-28T06:20:26;26.97;;;13.07;;
6598;SDS011;3335;43.198;27.918;2023-02-28T06:22:54;24.83;;;13.50;;
6598;SDS011;3335;43.198;27.918;2023-02-28T06:25:25;29.77;;;14.33;;
6598;SDS011;3335;43.198;27.918;2023-02-28T06:27:52;25.80;;;14.40;;
6598;SDS011;3335;43.198;27.918;2023-02-28T06:30:19;26.60;;;15.37;;
6598;SDS011;3335;43.198;27.918;2023-02-28T06:32:49;24.53;;;14.40;;
6598;SDS011;3335;43.198;27.918;2023-02-28T06:35:17;25.70;;;13.67;;
6598;SDS011;3335;43.198;27.918;2023-02-28T06:37:44;26.63;;;14.53;;
6598;SDS011;3335;43.198;27.918;2023-02-28T06:40:12;26.47;;;14.93;;
6598;SDS011;3335;43.198;27.918;2023-02-28T06:42:41;28.67;;;13.90;;
6598;SDS011;3335;43.198;27.918;2023-02-28T06:45:08;26.13;;;12.87;;
6598;SDS011;3335;43.198;27.918;2023-02-28T06:47:36;27.10;;;13.33;;
6598;SDS011;3335;43.198;27.918;2023-02-28T06:50:03;23.80;;;12.87;;
6598;SDS011;3335;43.198;27.918;2023-02-28T06:52:31;23.47;;;12.17;;
6598;SDS011;3335;43.198;27.918;2023-02-28T06:55:01;23.40;;;11.83;;
6598;SDS011;3335;43.198;27.918;2023-02-28T06:57:29;24.97;;;12.27;;
6598;SDS011;3335;43.198;27.918;2023-02-28T06:59:58;26.83;;;12.63;;
6598;SDS011;3335;43.198;27.918;2023-02-28T07:02:26;20.40;;;12.40;;
6598;SDS011;3335;43.198;27.918;2023-02-28T07:04:53;20.43;;;11.37;;
6598;SDS011;3335;43.198;27.918;2023-02-28T07:07:20;18.80;;;11.17;;
6598;SDS011;3335;43.198;27.918;2023-02-28T07:09:47;21.13;;;12.77;;
6598;SDS011;3335;43.198;27.918;2023-02-28T07:12:15;21.80;;;12.73;;
6598;SDS011;3335;43.198;27.918;2023-02-28T07:14:42;21.07;;;11.70;;
6598;SDS011;3335;43.198;27.918;2023-02-28T07:17:10;20.90;;;11.93;;
6598;SDS011;3335;43.198;27.918;2023-02-28T07:19:37;20.67;;;12.00;;
6598;SDS011;3335;43.198;27.918;2023-02-28T07:22:07;24.77;;;13.57;;
6598;SDS011;3335;43.198;27.918;2023-02-28T07:24:34;19.10;;;11.97;;
6598;SDS011;3335;43.198;27.918;2023-02-28T07:27:01;20.27;;;11.47;;
6598;SDS011;3335;43.198;27.918;2023-02-28T07:29:28;17.70;;;10.40;;
6598;SDS011;3335;43.198;27.918;2023-02-28T07:31:55;20.03;;;10.83;;
6598;SDS011;3335;43.198;27.918;2023-02-28T07:34:23;19.90;;;11.30;;
6598;SDS011;3335;43.198;27.918;2023-02-28T07:36:52;18.13;;;10.77;;
6598;SDS011;3335;43.198;27.918;2023-02-28T07:39:19;18.10;;;11.40;;
6598;SDS011;3335;43.198;27.918;2023-02-28T07:41:46;21.30;;;10.93;;
6598;SDS011;3335;43.198;27.918;2023-02-28T07:44:13;18.07;;;10.03;;
6598;SDS011;3335;43.198;27.918;2023-02-28T07:46:41;23.10;;;10.53;;
6598;SDS011;3335;43.198;27.918;2023-02-28T07:49:07;14.80;;;9.53;;
6598;SDS011;3335;43.198;27.918;2023-02-28T07:51:36;16.60;;;8.53;;
6598;SDS011;3335;43.198;27.918;2023-02-28T07:54:03;16.47;;;9.30;;
6598;SDS011;3335;43.198;27.918;2023-02-28T07:56:30;12.87;;;7.53;;
6598;SDS011;3335;43.198;27.918;2023-02-28T07:58:57;14.63;;;8.17;;
6598;SDS011;3335;43.198;27.918;2023-02-28T08:01:24;12.93;;;7.73;;
6598;SDS011;3335;43.198;27.918;2023-02-28T08:03:51;12.33;;;6.60;;
6598;SDS011;3335;43.198;27.918;2023-02-28T08:06:20;12.77;;;7.50;;
6598;SDS011;3335;43.198;27.918;2023-02-28T08:08:49;11.03;;;6.73;;
6598;SDS011;3335;43.198;27.918;2023-02-28T08:11:17;11.53;;;6.73;;
6598;SDS011;3335;43.198;27.918;2023-02-28T08:13:44;11.63;;;7.60;;
6598;SDS011;3335;43.198;27.918;2023-02-28T08:16:12;12.70;;;7.50;;
6598;SDS011;3335;43.198;27.918;2023-02-28T08:18:42;13.87;;;7.60;;
6598;SDS011;3335;43.198;27.918;2023-02-28T08:21:09;13.13;;;7.63;;
6598;SDS011;3335;43.198;27.918;2023-02-28T08:23:37;12.27;;;7.63;;
6598;SDS011;3335;43.198;27.918;2023-02-28T08:26:06;11.97;;;7.50;;
6598;SDS011;3335;43.198;27.918;2023-02-28T08:28:33;10.30;;;6.97;;
6598;SDS011;3335;43.198;27.918;2023-02-28T08:31:00;14.27;;;7.20;;
6598;SDS011;3335;43.198;27.918;2023-02-28T08:33:27;10.73;;;7.03;;
6598;SDS011;3335;43.198;27.918;2023-02-28T08:35:54;12.63;;;7.23;;
6598;SDS011;3335;43.198;27.918;2023-02-28T08:38:21;13.13;;;7.63;;
6598;SDS011;3335;43.198;27.918;2023-02-28T08:40:48;14.03;;;7.20;;
6598;SDS011;3335;43.198;27.918;2023-02-28T08:43:17;11.50;;;7.73;;
6598;SDS011;3335;43.198;27.918;2023-02-28T08:45:44;11.70;;;7.77;;
6598;SDS011;3335;43.198;27.918;2023-02-28T08:48:11;14.17;;;7.83;;
6598;SDS011;3335;43.198;27.918;2023-02-28T08:50:38;11.77;;;7.90;;
6598;SDS011;3335;43.198;27.918;2023-02-28T08:53:05;13.90;;;8.20;;
6598;SDS011;3335;43.198;27.918;2023-02-28T08:55:32;9.77;;;7.40;;
6598;SDS011;3335;43.198;27.918;2023-02-28T08:57:59;10.13;;;6.50;;
6598;SDS011;3335;43.198;27.918;2023-02-28T09:00:28;10.63;;;7.10;;
6598;SDS011;3335;43.198;27.918;2023-02-28T09:02:55;9.83;;;7.40;;
6598;SDS011;3335;43.198;27.918;2023-02-28T09:05:21;10.93;;;6.43;;
6598;SDS011;3335;43.198;27.918;2023-02-28T09:07:49;9.47;;;6.77;;
6598;SDS011;3335;43.198;27.918;2023-02-28T09:10:16;13.53;;;7.13;;
6598;SDS011;3335;43.198;27.918;2023-02-28T09:12:43;16.27;;;6.83;;
6598;SDS011;3335;43.198;27.918;2023-02-28T09:15:12;10.87;;;7.27;;
6598;SDS011;3335;43.198;27.918;2023-02-28T09:17:40;11.67;;;7.37;;
6598;SDS011;3335;43.198;27.918;2023-02-28T09:20:07;9.67;;;6.80;;
6598;SDS011;3335;43.198;27.918;2023-02-28T09:22:35;11.10;;;6.73;;
6598;SDS011;3335;43.198;27.918;2023-02-28T09:25:02;9.93;;;6.53;;
6598;SDS011;3335;43.198;27.918;2023-02-28T09:27:30;9.50;;;6.60;;
6598;SDS011;3335;43.198;27.918;2023-02-28T09:29:57;10.23;;;6.90;;
6598;SDS011;3335;43.198;27.918;2023-02-28T09:32:24;10.07;;;6.83;;
6598;SDS011;3335;43.198;27.918;2023-02-28T09:34:52;12.63;;;7.00;;
6598;SDS011;3335;43.198;27.918;2023-02-28T09:37:19;11.17;;;7.40;;
6598;SDS011;3335;43.198;27.918;2023-02-28T09:39:46;10.13;;;7.50;;
6598;SDS011;3335;43.198;27.918;2023-02-28T09:42:17;11.33;;;7.30;;
6598;SDS011;3335;43.198;27.918;2023-02-28T09:44:49;12.63;;;7.57;;
6598;SDS011;3335;43.198;27.918;2023-02-28T09:47:19;12.43;;;6.43;;
6598;SDS011;3335;43.198;27.918;2023-02-28T09:49:54;10.80;;;7.00;;
6598;SDS011;3335;43.198;27.918;2023-02-28T09:52:26;11.90;;;7.50;;
6598;SDS011;3335;43.198;27.918;2023-02-28T09:54:56;11.60;;;8.20;;
6598;SDS011;3335;43.198;27.918;2023-02-28T09:57:29;13.50;;;8.07;;
6598;SDS011;3335;43.198;27.918;2023-02-28T10:00:03;16.80;;;7.67;;
6598;SDS011;3335;43.198;27.918;2023-02-28T10:02:43;13.53;;;7.23;;
6598;SDS011;3335;43.198;27.918;2023-02-28T10:05:21;10.00;;;6.67;;
6598;SDS011;3335;43.198;27.918;2023-02-28T10:07:55;10.20;;;6.63;;
6598;SDS011;3335;43.198;27.918;2023-02-28T10:10:32;12.13;;;6.80;;
6598;SDS011;3335;43.198;27.918;2023-02-28T10:13:04;10.97;;;6.80;;
6598;SDS011;3335;43.198;27.918;2023-02-28T10:15:39;8.67;;;6.13;;
6598;SDS011;3335;43.198;27.918;2023-02-28T10:18:09;11.53;;;6.20;;
6598;SDS011;3335;43.198;27.918;2023-02-28T10:20:40;11.63;;;6.47;;
6598;SDS011;3335;43.198;27.918;2023-02-28T10:23:11;13.30;;;6.87;;
6598;SDS011;3335;43.198;27.918;2023-02-28T10:25:44;9.53;;;5.90;;
6598;SDS011;3335;43.198;27.918;2023-02-28T10:28:15;10.77;;;6.80;;
6598;SDS011;3335;43.198;27.918;2023-02-28T10:30:44;11.17;;;7.30;;
6598;SDS011;3335;43.198;27.918;2023-02-28T10:33:17;8.00;;;6.17;;
6598;SDS011;3335;43.198;27.918;2023-02-28T10:35:47;10.37;;;6.67;;
6598;SDS011;3335;43.198;27.918;2023-02-28T10:38:15;9.00;;;6.77;;
6598;SDS011;3335;43.198;27.918;2023-02-28T10:40:44;11.80;;;6.07;;
6598;SDS011;3335;43.198;27.918;2023-02-28T10:43:18;10.07;;;7.00;;
6598;SDS011;3335;43.198;27.918;2023-02-28T10:46:00;9.27;;;6.00;;
6598;SDS011;3335;43.198;27.918;2023-02-28T10:48:33;9.43;;;6.37;;
6598;SDS011;3335;43.198;27.918;2023-02-28T10:51:05;9.33;;;6.43;;
6598;SDS011;3335;43.198;27.918;2023-02-28T10:53:35;10.50;;;6.40;;
6598;SDS011;3335;43.198;27.918;2023-02-28T10:56:12;9.30;;;6.27;;
6598;SDS011;3335;43.198;27.918;2023-02-28T10:58:53;10.80;;;6.30;;
6598;SDS011;3335;43.198;27.918;2023-02-28T11:01:24;10.20;;;6.43;;
6598;SDS011;3335;43.198;27.918;2023-02-28T11:04:03;8.80;;;6.20;;
6598;SDS011;3335;43.198;27.918;2023-02-28T11:06:33;11.57;;;6.37;;
6598;SDS011;3335;43.198;27.918;2023-02-28T11:09:02;10.83;;;7.07;;
6598;SDS011;3335;43.198;27.918;2023-02-28T11:11:41;12.37;;;7.27;;
6598;SDS011;3335;43.198;27.918;2023-02-28T11:14:14;11.67;;;7.20;;
6598;SDS011;3335;43.198;27.918;2023-02-28T11:16:46;16.13;;;7.10;;
6598;SDS011;3335;43.198;27.918;2023-02-28T11:19:16;11.50;;;7.70;;
6598;SDS011;3335;43.198;27.918;2023-02-28T11:21:51;11.93;;;7.27;;
6598;SDS011;3335;43.198;27.918;2023-02-28T11:24:23;12.27;;;7.87;;
6598;SDS011;3335;43.198;27.918;2023-02-28T11:26:53;10.33;;;6.97;;
6598;SDS011;3335;43.198;27.918;2023-02-28T11:29:21;10.70;;;7.23;;
6598;SDS011;3335;43.198;27.918;2023-02-28T11:32:00;11.40;;;7.23;;
6598;SDS011;3335;43.198;27.918;2023-02-28T11:34:29;12.57;;;6.97;;
6598;SDS011;3335;43.198;27.918;2023-02-28T11:36:59;12.70;;;7.77;;
6598;SDS011;3335;43.198;27.918;2023-02-28T11:39:30;12.00;;;7.77;;
6598;SDS011;3335;43.198;27.918;2023-02-28T11:42:04;13.33;;;7.30;;
6598;SDS011;3335;43.198;27.918;2023-02-28T11:44:46;11.40;;;7.60;;
6598;SDS011;3335;43.198;27.918;2023-02-28T11:47:26;9.63;;;7.13;;
6598;SDS011;3335;43.198;27.918;2023-02-28T11:50:03;9.40;;;6.43;;
6598;SDS011;3335;43.198;27.918;2023-02-28T11:52:55;10.57;;;6.83;;
6598;SDS011;3335;43.198;27.918;2023-02-28T11:55:26;11.97;;;6.90;;
6598;SDS011;3335;43.198;27.918;2023-02-28T11:58:03;11.93;;;6.37;;
6598;SDS011;3335;43.198;27.918;2023-02-28T12:00:45;10.10;;;7.20;;
6598;SDS011;3335;43.198;27.918;2023-02-28T12:03:26;10.13;;;6.83;;
6598;SDS011;3335;43.198;27.918;2023-02-28T12:06:01;17.20;;;7.43;;
6598;SDS011;3335;43.198;27.918;2023-02-28T12:08:43;10.73;;;7.03;;
6598;SDS011;3335;43.198;27.918;2023-02-28T12:11:19;15.40;;;8.13;;
6598;SDS011;3335;43.198;27.918;2023-02-28T12:14:00;12.60;;;7.13;;
6598;SDS011;3335;43.198;27.918;2023-02-28T12:16:45;15.10;;;8.03;;
6598;SDS011;3335;43.198;27.918;2023-02-28T12:19:23;14.23;;;7.93;;
6598;SDS011;3335;43.198;27.918;2023-02-28T12:22:09;13.73;;;7.93;;
6598;SDS011;3335;43.198;27.918;2023-02-28T12:25:02;16.73;;;7.97;;
6598;SDS011;3335;43.198;27.918;2023-02-28T12:27:54;14.43;;;8.03;;
6598;SDS011;3335;43.198;27.918;2023-02-28T12:30:22;14.30;;;7.43;;
6598;SDS011;3335;43.198;27.918;2023-02-28T12:32:52;21.57;;;8.63;;
6598;SDS011;3335;43.198;27.918;2023-02-28T12:35:24;16.60;;;9.10;;
6598;SDS011;3335;43.198;27.918;2023-02-28T12:37:55;13.63;;;8.27;;
6598;SDS011;3335;43.198;27.918;2023-02-28T12:40:27;13.77;;;9.13;;
6598;SDS011;3335;43.198;27.918;2023-02-28T12:43:02;12.67;;;8.47;;
6598;SDS011;3335;43.198;27.918;2023-02-28T12:45:38;12.30;;;8.13;;
6598;SDS011;3335;43.198;27.918;2023-02-28T12:48:09;20.90;;;8.67;;
6598;SDS011;3335;43.198;27.918;2023-02-28T12:50:41;13.80;;;8.37;;
6598;SDS011;3335;43.198;27.918;2023-02-28T12:53:09;16.77;;;10.20;;
6598;SDS011;3335;43.198;27.918;2023-02-28T12:55:50;19.20;;;10.03;;
6598;SDS011;3335;43.198;27.918;2023-02-28T12:58:26;18.87;;;10.43;;
6598;SDS011;3335;43.198;27.918;2023-02-28T13:01:13;17.20;;;9.83;;
6598;SDS011;3335;43.198;27.918;2023-02-28T13:04:05;15.23;;;9.83;;
6598;SDS011;3335;43.198;27.918;2023-02-28T13:06:49;16.03;;;8.77;;
6598;SDS011;3335;43.198;27.918;2023-02-28T13:09:51;15.57;;;9.37;;
6598;SDS011;3335;43.198;27.918;2023-02-28T13:12:21;14.67;;;9.47;;
6598;SDS011;3335;43.198;27.918;2023-02-28T13:14:49;17.60;;;9.83;;
6598;SDS011;3335;43.198;27.918;2023-02-28T13:17:17;14.27;;;8.83;;
6598;SDS011;3335;43.198;27.918;2023-02-28T13:19:46;21.83;;;9.77;;
6598;SDS011;3335;43.198;27.918;2023-02-28T13:22:36;15.93;;;9.43;;
6598;SDS011;3335;43.198;27.918;2023-02-28T13:28:56;17.57;;;9.03;;
6598;SDS011;3335;43.198;27.918;2023-02-28T13:31:32;21.33;;;10.23;;
6598;SDS011;3335;43.198;27.918;2023-02-28T13:34:19;18.87;;;9.70;;
6598;SDS011;3335;43.198;27.918;2023-02-28T13:36:46;17.30;;;9.40;;
6598;SDS011;3335;43.198;27.918;2023-02-28T13:42:22;13.80;;;8.60;;
6598;SDS011;3335;43.198;27.918;2023-02-28T13:47:51;20.23;;;10.80;;
6598;SDS011;3335;43.198;27.918;2023-02-28T13:50:30;21.57;;;10.10;;
6598;SDS011;3335;43.198;27.918;2023-02-28T13:56:01;17.20;;;10.53;;
6598;SDS011;3335;43.198;27.918;2023-02-28T13:58:47;19.17;;;11.40;;
6598;SDS011;3335;43.198;27.918;2023-02-28T14:01:26;21.60;;;11.03;;
6598;SDS011;3335;43.198;27.918;2023-02-28T14:04:17;22.37;;;11.03;;
6598;SDS011;3335;43.198;27.918;2023-02-28T14:07:04;19.87;;;10.47;;
6598;SDS011;3335;43.198;27.918;2023-02-28T14:09:32;24.50;;;11.13;;
6598;SDS011;3335;43.198;27.918;2023-02-28T14:15:02;18.50;;;11.03;;
6598;SDS011;3335;43.198;27.918;2023-02-28T14:17:31;19.17;;;11.43;;
6598;SDS011;3335;43.198;27.918;2023-02-28T14:19:59;22.90;;;11.03;;
6598;SDS011;3335;43.198;27.918;2023-02-28T14:25:23;19.43;;;10.73;;
6598;SDS011;3335;43.198;27.918;2023-02-28T14:28:03;21.67;;;11.47;;
6598;SDS011;3335;43.198;27.918;2023-02-28T14:30:45;22.00;;;10.50;;
6598;SDS011;3335;43.198;27.918;2023-02-28T14:33:25;16.57;;;9.63;;
6598;SDS011;3335;43.198;27.918;2023-02-28T14:36:09;18.10;;;10.50;;
6598;SDS011;3335;43.198;27.918;2023-02-28T14:38:42;16.87;;;10.00;;
6598;SDS011;3335;43.198;27.918;2023-02-28T14:41:15;18.23;;;10.67;;
6598;SDS011;3335;43.198;27.918;2023-02-28T14:43:56;17.90;;;10.33;;
6598;SDS011;3335;43.198;27.918;2023-02-28T14:46:26;21.43;;;10.70;;
6598;SDS011;3335;43.198;27.918;2023-02-28T14:48:59;16.77;;;10.40;;
6598;SDS011;3335;43.198;27.918;2023-02-28T14:51:26;20.23;;;10.07;;
6598;SDS011;3335;43.198;27.918;2023-02-28T14:53:56;17.03;;;9.70;;
6598;SDS011;3335;43.198;27.918;2023-02-28T14:56:26;17.80;;;10.40;;
6598;SDS011;3335;43.198;27.918;2023-02-28T14:58:57;21.37;;;9.97;;
6598;SDS011;3335;43.198;27.918;2023-02-28T15:01:24;25.47;;;10.87;;
6598;SDS011;3335;43.198;27.918;2023-02-28T15:04:01;16.90;;;10.10;;
6598;SDS011;3335;43.198;27.918;2023-02-28T15:06:29;20.43;;;9.77;;
6598;SDS011;3335;43.198;27.918;2023-02-28T15:09:07;18.03;;;9.83;;
6598;SDS011;3335;43.198;27.918;2023-02-28T15:11:36;17.90;;;10.17;;
6598;SDS011;3335;43.198;27.918;2023-02-28T15:14:04;18.60;;;9.27;;
6598;SDS011;3335;43.198;27.918;2023-02-28T15:16:31;23.03;;;9.63;;
6598;SDS011;3335;43.198;27.918;2023-02-28T15:19:06;19.23;;;10.00;;
6598;SDS011;3335;43.198;27.918;2023-02-28T15:21:40;17.60;;;9.80;;
6598;SDS011;3335;43.198;27.918;2023-02-28T15:24:12;21.60;;;9.73;;
6598;SDS011;3335;43.198;27.918;2023-02-28T15:26:49;19.17;;;10.80;;
6598;SDS011;3335;43.198;27.918;2023-02-28T15:29:20;20.03;;;10.00;;
6598;SDS011;3335;43.198;27.918;2023-02-28T15:31:49;22.37;;;10.20;;
6598;SDS011;3335;43.198;27.918;2023-02-28T15:34:20;56.37;;;25.10;;
6598;SDS011;3335;43.198;27.918;2023-02-28T15:36:48;33.90;;;16.40;;
6598;SDS011;3335;43.198;27.918;2023-02-28T15:39:20;37.60;;;18.63;;